Aviation Digital Data Service (ADDS)

Output produced by METARs form (1857 UTC 22 May 2019)
found at http://aviationweather.gov/metar/data/
 
METAR text: KJOT 221835Z AUTO 20012G18KT 170V230 10SM CLR 26/16 A2986 RMK AO2 T02640163
Conditions at: KJOT (JOLIET , IL, US) observed 1835 UTC 22 May 2019
Temperature: 26.4°C (80°F)
Dewpoint: 16.3°C (61°F) [RH = 54%]
Pressure (altimeter): 29.86 inches Hg (1011.3 mb)
Winds: from the SSW (200 degrees) at 14 MPH (12 knots; 6.2 m/s)
gusting to 21 MPH (18 knots; 9.3 m/s)
Visibility: 10 or more miles (16+ km)
Ceiling: at least 12,000 feet AGL
Clouds: sky clear below 12,000 feet AGL
Weather: automated observation with no human augmentation;
there may or may not be significant weather present at this time